Time;durP1;ratioP1;P1;durP2;ratioP2;P2;SDS_P1;SDS_P2;PMS_P1;PMS_P2;Temp;Humidity;BMP_temperature;BMP_pressure;BME280_temperature;BME280_humidity;BME280_pressure;Samples;Min_cycle;Max_cycle;Signal;HPM_P1;HPM_P2
2021/03/23 00:00:33;;;;;;;14.57;5.15;;;0.60;68.70;;;;;;5071722;28;20082;-58
2021/03/23 00:03:03;;;;;;;14.15;4.53;;;0.60;69.20;;;;;;5049223;28;20055;-59
2021/03/23 00:05:30;;;;;;;14.35;4.00;;;0.60;69.30;;;;;;5068079;28;20137;-59
2021/03/23 00:07:57;;;;;;;13.23;4.22;;;0.50;69.10;;;;;;5069080;28;20439;-59
2021/03/23 00:10:27;;;;;;;13.98;4.57;;;0.40;69.30;;;;;;5050717;28;20044;-58
2021/03/23 00:12:55;;;;;;;13.48;4.18;;;0.30;69.70;;;;;;5067947;28;20043;-58
2021/03/23 00:15:22;;;;;;;14.02;4.43;;;0.30;69.90;;;;;;5039594;28;20033;-57
2021/03/23 00:17:49;;;;;;;9.75;3.60;;;0.20;70.00;;;;;;5069863;28;20043;-59
2021/03/23 00:20:20;;;;;;;10.70;4.00;;;0.20;70.50;;;;;;5070239;28;20446;-58
2021/03/23 00:22:47;;;;;;;12.23;4.22;;;0.00;71.30;;;;;;5068540;28;20153;-59
2021/03/23 00:25:15;;;;;;;10.80;4.40;;;-0.10;71.30;;;;;;5054608;28;20044;-57
2021/03/23 00:27:41;;;;;;;12.73;4.28;;;-0.10;71.30;;;;;;5069632;28;20032;-58
2021/03/23 00:30:11;;;;;;;10.13;3.35;;;-0.10;72.20;;;;;;5064056;28;20058;-58
2021/03/23 00:32:37;;;;;;;9.50;3.45;;;-0.10;71.70;;;;;;5054116;28;20060;-57
2021/03/23 00:35:07;;;;;;;8.60;3.28;;;-0.10;71.40;;;;;;5076591;28;20052;-58
2021/03/23 00:37:35;;;;;;;12.93;3.85;;;-0.10;72.60;;;;;;5070836;28;20056;-58
2021/03/23 00:40:08;;;;;;;12.20;3.92;;;-0.10;73.10;;;;;;5083048;28;20045;-57
2021/03/23 00:42:35;;;;;;;8.82;2.70;;;-0.10;73.40;;;;;;5056595;28;20180;-59
2021/03/23 00:45:04;;;;;;;7.57;3.30;;;-0.10;72.90;;;;;;5053614;28;20114;-60
2021/03/23 00:47:30;;;;;;;9.73;3.38;;;-0.20;73.80;;;;;;5073891;28;20701;-59
2021/03/23 00:49:57;;;;;;;9.77;3.30;;;-0.20;72.70;;;;;;5062907;28;20048;-57
2021/03/23 00:52:24;;;;;;;9.35;3.30;;;-0.30;72.90;;;;;;5079814;28;20487;-58
2021/03/23 00:54:52;;;;;;;12.05;4.03;;;-0.30;72.60;;;;;;5058407;28;20117;-57
2021/03/23 00:57:19;;;;;;;7.82;2.78;;;-0.30;73.10;;;;;;5065336;28;20537;-58
2021/03/23 00:59:46;;;;;;;7.75;3.00;;;-0.40;74.30;;;;;;5059854;28;20043;-59
2021/03/23 01:02:12;;;;;;;12.35;3.22;;;-0.40;74.20;;;;;;5072034;28;20040;-58
2021/03/23 01:04:39;;;;;;;8.75;3.88;;;-0.40;74.00;;;;;;5073856;28;20067;-57
2021/03/23 01:07:10;;;;;;;11.10;4.30;;;-0.50;73.90;;;;;;5066274;28;20086;-57
2021/03/23 01:09:37;;;;;;;12.25;4.50;;;-0.60;74.20;;;;;;5076756;28;20090;-57
2021/03/23 01:12:05;;;;;;;12.15;4.13;;;-0.60;74.90;;;;;;5063552;28;20468;-58
2021/03/23 01:14:32;;;;;;;11.65;3.92;;;-0.60;74.30;;;;;;5057349;28;20051;-57
2021/03/23 01:16:58;;;;;;;11.35;4.57;;;-0.60;74.30;;;;;;5078374;28;20443;-56
2021/03/23 01:19:25;;;;;;;14.63;3.88;;;-0.60;74.70;;;;;;5077705;28;20044;-60
2021/03/23 01:21:52;;;;;;;14.32;4.82;;;-0.60;74.60;;;;;;5072762;28;20036;-57
2021/03/23 01:24:33;;;;;;;15.80;5.50;;;-0.60;74.50;;;;;;5048039;28;20056;-60
2021/03/23 01:27:00;;;;;;;14.10;4.95;;;-0.60;74.60;;;;;;5061910;28;20422;-57
2021/03/23 01:29:28;;;;;;;9.93;4.40;;;-0.70;75.20;;;;;;5078092;28;20496;-58
2021/03/23 01:31:57;;;;;;;13.07;4.85;;;-0.70;75.00;;;;;;5074667;28;20569;-56
2021/03/23 01:34:47;;;;;;;15.10;4.80;;;-0.70;75.20;;;;;;5071405;28;20111;-57
2021/03/23 01:37:14;;;;;;;17.00;5.10;;;-0.70;75.70;;;;;;5074421;28;20039;-57
2021/03/23 01:39:42;;;;;;;8.80;4.38;;;-0.80;75.60;;;;;;5058347;28;20051;-56
2021/03/23 01:42:11;;;;;;;13.23;4.40;;;-0.80;76.60;;;;;;5070655;28;20048;-56
2021/03/23 01:44:42;;;;;;;14.00;4.72;;;-0.80;76.00;;;;;;5053480;28;20446;-57
2021/03/23 01:47:09;;;;;;;17.95;5.32;;;-0.80;75.90;;;;;;5073333;28;20044;-58
2021/03/23 01:49:45;;;;;;;9.93;4.22;;;-0.80;76.60;;;;;;5082155;28;20040;-59
2021/03/23 01:52:18;;;;;;;13.70;4.00;;;-0.90;77.30;;;;;;5074373;28;20118;-57
2021/03/23 01:55:11;;;;;;;14.23;4.15;;;-0.80;77.50;;;;;;5067239;28;20033;-57
2021/03/23 01:57:39;;;;;;;12.77;3.83;;;-0.90;78.00;;;;;;5067469;28;20059;-57
2021/03/23 02:00:09;;;;;;;11.35;4.22;;;-0.90;77.40;;;;;;5074227;28;20508;-58
2021/03/23 02:02:37;;;;;;;10.80;4.38;;;-0.90;78.60;;;;;;5076236;28;20086;-57
2021/03/23 02:05:17;;;;;;;18.40;5.30;;;-0.90;78.30;;;;;;5047634;28;20066;-57
2021/03/23 02:07:44;;;;;;;15.35;4.13;;;-0.90;78.00;;;;;;5078806;28;20093;-58
2021/03/23 02:10:11;;;;;;;14.02;4.70;;;-1.00;78.20;;;;;;5058450;28;20056;-59
2021/03/23 02:12:37;;;;;;;9.27;3.42;;;-1.00;79.20;;;;;;5051349;28;20059;-61
2021/03/23 02:15:06;;;;;;;12.77;4.50;;;-1.00;78.80;;;;;;5075784;28;20070;-58
2021/03/23 02:17:38;;;;;;;12.15;4.35;;;-1.00;79.30;;;;;;5068515;28;20041;-57
2021/03/23 02:20:14;;;;;;;13.63;4.70;;;-1.00;79.10;;;;;;5052017;28;20455;-57
2021/03/23 02:22:46;;;;;;;13.98;4.40;;;-1.00;79.50;;;;;;5067598;28;20067;-56
2021/03/23 02:25:25;;;;;;;11.07;4.30;;;-1.00;78.90;;;;;;5066788;28;20037;-57
2021/03/23 02:27:52;;;;;;;17.98;4.90;;;-1.00;79.30;;;;;;5069455;28;20058;-61
2021/03/23 02:30:41;;;;;;;17.15;4.78;;;-1.00;79.60;;;;;;5073101;28;20045;-59
2021/03/23 02:33:08;;;;;;;9.35;4.82;;;-1.00;79.60;;;;;;5059160;28;20040;-56
2021/03/23 02:35:36;;;;;;;12.50;4.25;;;-1.10;79.00;;;;;;5073795;28;20033;-59
2021/03/23 02:38:03;;;;;;;13.90;4.53;;;-1.10;79.30;;;;;;5080156;28;20042;-57
2021/03/23 02:40:30;;;;;;;12.43;4.15;;;-1.20;80.10;;;;;;5069520;28;20057;-59
2021/03/23 02:42:57;;;;;;;14.52;5.10;;;-1.20;80.90;;;;;;5077467;28;20356;-56
2021/03/23 02:45:25;;;;;;;9.80;3.78;;;-1.30;79.80;;;;;;5054315;28;20056;-57
2021/03/23 02:47:52;;;;;;;17.42;5.38;;;-1.40;79.50;;;;;;5073037;28;20037;-57
2021/03/23 02:50:19;;;;;;;13.45;4.40;;;-1.40;81.00;;;;;;5073600;28;20495;-58
2021/03/23 02:52:46;;;;;;;12.82;3.95;;;-1.40;81.20;;;;;;5061877;28;20047;-57
2021/03/23 02:55:13;;;;;;;10.80;3.90;;;-1.40;81.40;;;;;;5050938;28;20738;-57
2021/03/23 02:57:40;;;;;;;10.90;4.38;;;-1.40;81.10;;;;;;5051998;28;20040;-57
2021/03/23 03:00:09;;;;;;;17.20;5.28;;;-1.40;80.90;;;;;;5063290;28;20032;-58
2021/03/23 03:02:35;;;;;;;12.95;4.22;;;-1.40;80.20;;;;;;5070384;28;20053;-57
2021/03/23 03:05:04;;;;;;;11.57;4.60;;;-1.40;81.20;;;;;;5069226;28;20048;-58
2021/03/23 03:07:31;;;;;;;14.50;5.10;;;-1.40;82.00;;;;;;5072863;28;20846;-58
2021/03/23 03:09:57;;;;;;;21.80;5.50;;;-1.40;81.40;;;;;;5070673;28;20036;-57
2021/03/23 03:12:24;;;;;;;10.65;4.47;;;-1.50;80.50;;;;;;5068973;28;20594;-58
2021/03/23 03:14:50;;;;;;;14.55;5.05;;;-1.50;80.40;;;;;;5076406;28;20036;-58
2021/03/23 03:17:17;;;;;;;11.60;4.25;;;-1.50;81.80;;;;;;5068046;28;20040;-57
2021/03/23 03:19:43;;;;;;;9.32;4.20;;;-1.50;81.60;;;;;;5080816;28;20097;-59
2021/03/23 03:22:10;;;;;;;14.00;4.78;;;-1.70;80.70;;;;;;5052127;28;20037;-57
2021/03/23 03:24:36;;;;;;;14.70;4.57;;;-1.70;81.70;;;;;;5051867;28;20044;-58
2021/03/23 03:27:03;;;;;;;15.10;4.10;;;-1.70;82.10;;;;;;5070193;28;20036;-57
2021/03/23 03:29:30;;;;;;;14.73;4.82;;;-1.70;81.70;;;;;;5083733;28;20040;-57
2021/03/23 03:31:56;;;;;;;16.17;4.70;;;-1.70;81.70;;;;;;5060310;28;20135;-58
2021/03/23 03:34:23;;;;;;;15.73;5.05;;;-1.90;82.30;;;;;;5052627;28;20040;-57
2021/03/23 03:36:49;;;;;;;9.65;4.45;;;-2.00;83.60;;;;;;5055043;28;20040;-57
2021/03/23 03:39:16;;;;;;;10.10;4.32;;;-2.00;83.80;;;;;;5065711;28;20044;-57
2021/03/23 03:41:42;;;;;;;11.55;4.60;;;-2.00;84.30;;;;;;5069828;28;20506;-58
2021/03/23 03:44:09;;;;;;;21.17;6.50;;;-1.90;84.70;;;;;;5065410;28;20045;-57
2021/03/23 03:46:35;;;;;;;14.43;6.55;;;-1.90;84.40;;;;;;5073624;28;20067;-58
2021/03/23 03:49:02;;;;;;;19.95;5.20;;;-2.00;84.60;;;;;;5058396;28;20049;-57
2021/03/23 03:51:29;;;;;;;15.27;4.70;;;-2.00;84.80;;;;;;5075445;28;20445;-57
2021/03/23 03:53:56;;;;;;;9.63;3.85;;;-1.90;85.70;;;;;;5077576;28;20028;-58
2021/03/23 03:56:22;;;;;;;12.50;4.10;;;-1.90;85.50;;;;;;5072171;28;20106;-58
2021/03/23 03:58:49;;;;;;;17.60;4.47;;;-1.90;84.80;;;;;;5077617;28;20047;-57
2021/03/23 04:01:15;;;;;;;16.95;5.30;;;-1.90;84.70;;;;;;5074462;28;20051;-57
2021/03/23 04:03:42;;;;;;;13.80;4.88;;;-1.90;84.70;;;;;;5073746;28;20075;-57
2021/03/23 04:06:09;;;;;;;13.75;4.32;;;-1.90;85.30;;;;;;5069525;28;20818;-58
2021/03/23 04:08:38;;;;;;;16.30;4.88;;;-1.90;85.00;;;;;;5054233;28;20525;-57
2021/03/23 04:11:07;;;;;;;14.18;5.60;;;-1.90;84.80;;;;;;5073074;28;20037;-58
2021/03/23 04:13:33;;;;;;;13.18;4.35;;;-1.80;85.00;;;;;;5050878;28;20057;-58
2021/03/23 04:16:01;;;;;;;11.82;4.38;;;-1.90;84.20;;;;;;5055087;28;20410;-59
2021/03/23 04:18:28;;;;;;;15.00;5.00;;;-2.00;84.60;;;;;;5051289;28;20048;-57
2021/03/23 04:20:58;;;;;;;18.65;6.40;;;-2.00;85.60;;;;;;5048530;28;20043;-56
2021/03/23 04:23:30;;;;;;;28.48;8.35;;;-2.00;85.70;;;;;;5054694;28;20152;-58
2021/03/23 04:25:58;;;;;;;18.90;6.40;;;-2.00;85.60;;;;;;5073774;28;20051;-60
2021/03/23 04:28:25;;;;;;;19.33;7.07;;;-2.00;84.80;;;;;;5052197;28;20308;-59
2021/03/23 04:30:52;;;;;;;16.20;6.45;;;-2.00;85.10;;;;;;5048660;28;20041;-58
2021/03/23 04:33:22;;;;;;;14.38;5.32;;;-2.00;85.00;;;;;;5038253;28;20048;-58
2021/03/23 04:35:51;;;;;;;16.10;4.70;;;-2.00;84.80;;;;;;5054944;28;20522;-58
2021/03/23 04:38:29;;;;;;;14.68;4.18;;;-2.00;84.30;;;;;;5054879;28;20048;-57
2021/03/23 04:40:58;;;;;;;11.40;3.72;;;-2.00;85.20;;;;;;5054440;28;20063;-57
2021/03/23 04:43:27;;;;;;;8.48;3.25;;;-2.00;85.40;;;;;;5055109;28;20054;-57
2021/03/23 04:45:54;;;;;;;12.88;3.70;;;-2.00;85.70;;;;;;5069255;28;20056;-58
2021/03/23 04:48:22;;;;;;;13.40;4.55;;;-1.90;85.50;;;;;;5034575;28;20063;-57
2021/03/23 04:50:49;;;;;;;12.20;4.53;;;-2.10;85.20;;;;;;5071290;28;20040;-59
2021/03/23 04:53:28;;;;;;;16.23;5.00;;;-2.10;85.70;;;;;;5050811;28;20040;-57
2021/03/23 04:55:55;;;;;;;14.80;5.38;;;-2.10;85.70;;;;;;5071743;28;20429;-57
2021/03/23 04:58:24;;;;;;;15.15;5.13;;;-2.10;86.80;;;;;;5072821;28;20041;-57
2021/03/23 05:00:51;;;;;;;19.95;7.32;;;-2.10;86.90;;;;;;5074135;28;20450;-57
2021/03/23 05:03:22;;;;;;;23.38;8.05;;;-2.20;86.40;;;;;;5054391;28;20051;-56
2021/03/23 05:05:53;;;;;;;17.88;6.90;;;-2.20;86.40;;;;;;5054525;28;20098;-58
2021/03/23 05:08:20;;;;;;;27.23;9.80;;;-2.20;87.50;;;;;;5070666;28;20051;-58
2021/03/23 05:10:47;;;;;;;19.83;6.35;;;-2.20;88.90;;;;;;5070425;28;20048;-57
2021/03/23 05:13:13;;;;;;;21.52;8.13;;;-2.20;89.70;;;;;;5069833;28;20403;-59
2021/03/23 05:15:40;;;;;;;19.70;8.20;;;-2.10;88.90;;;;;;5047148;28;20040;-59
2021/03/23 05:18:08;;;;;;;16.90;7.05;;;-2.00;90.00;;;;;;5067386;28;20687;-57
2021/03/23 05:20:34;;;;;;;12.63;5.30;;;-2.00;89.70;;;;;;5044880;28;20040;-57
2021/03/23 05:23:01;;;;;;;14.23;5.60;;;-1.90;90.00;;;;;;5051878;28;20054;-58
2021/03/23 05:25:27;;;;;;;31.40;8.20;;;-1.90;90.30;;;;;;5052471;28;20151;-58
2021/03/23 05:27:54;;;;;;;23.98;7.32;;;-1.80;90.50;;;;;;5070547;28;20048;-58
2021/03/23 05:30:21;;;;;;;24.70;6.68;;;-1.70;90.40;;;;;;5067622;28;20040;-58
2021/03/23 05:32:48;;;;;;;14.70;5.70;;;-1.70;90.20;;;;;;5073250;28;20032;-58
2021/03/23 05:35:16;;;;;;;20.35;5.70;;;-1.70;91.30;;;;;;5073187;28;20480;-58
2021/03/23 05:37:47;;;;;;;17.63;6.95;;;-1.60;90.90;;;;;;5072675;28;20602;-57
2021/03/23 05:40:24;;;;;;;23.17;8.65;;;-1.50;91.00;;;;;;5053932;28;20055;-58
2021/03/23 05:43:22;;;;;;;14.05;6.05;;;-1.30;92.00;;;;;;5073117;28;20045;-57
2021/03/23 05:46:12;;;;;;;13.00;6.00;;;-1.20;92.20;;;;;;4987209;28;20058;-57
2021/03/23 05:48:54;;;;;;;15.35;5.70;;;-1.00;92.80;;;;;;4986118;28;20069;-59
2021/03/23 05:51:26;;;;;;;18.40;7.18;;;-0.90;92.20;;;;;;4988235;28;20072;-60
2021/03/23 05:54:12;;;;;;;27.50;10.43;;;-0.80;92.40;;;;;;4972784;28;20057;-57
2021/03/23 05:56:41;;;;;;;19.75;8.57;;;-0.70;92.40;;;;;;4992034;28;20057;-57
2021/03/23 05:59:19;;;;;;;21.67;8.15;;;-0.60;92.60;;;;;;4985796;28;20050;-58
2021/03/23 06:01:55;;;;;;;19.05;8.77;;;-0.50;92.70;;;;;;4985098;28;20038;-57
2021/03/23 06:04:33;;;;;;;34.75;13.15;;;-0.30;92.70;;;;;;4990560;28;20584;-57
2021/03/23 06:07:05;;;;;;;28.45;11.80;;;-0.20;92.60;;;;;;5010779;28;20056;-57
2021/03/23 06:09:38;;;;;;;26.13;10.38;;;-0.10;92.80;;;;;;5009502;28;20072;-58
2021/03/23 06:12:23;;;;;;;24.05;8.73;;;0.10;93.10;;;;;;4993757;28;20424;-57
2021/03/23 06:15:08;;;;;;;20.98;7.32;;;0.20;93.70;;;;;;4987714;28;20050;-57
2021/03/23 06:17:49;;;;;;;16.52;6.78;;;0.30;93.20;;;;;;5015646;28;20042;-57
2021/03/23 06:20:37;;;;;;;19.50;7.32;;;0.40;93.10;;;;;;5007485;28;20046;-61
2021/03/23 06:23:04;;;;;;;21.83;7.45;;;0.60;93.00;;;;;;5050129;28;20053;-58
2021/03/23 06:25:45;;;;;;;16.88;7.25;;;0.70;92.30;;;;;;5072001;28;20434;-58
2021/03/23 06:28:33;;;;;;;18.00;7.38;;;0.80;92.10;;;;;;5050438;28;20060;-57
2021/03/23 06:31:15;;;;;;;21.58;8.35;;;1.00;91.80;;;;;;5067378;28;20048;-58
2021/03/23 06:33:42;;;;;;;26.60;9.80;;;1.10;92.00;;;;;;5070802;28;20571;-58
2021/03/23 06:36:24;;;;;;;24.58;8.30;;;1.20;91.20;;;;;;5053772;28;20086;-57
2021/03/23 06:38:51;;;;;;;18.13;7.03;;;1.30;91.30;;;;;;5071420;28;20059;-59
2021/03/23 06:41:20;;;;;;;18.02;6.68;;;1.30;90.70;;;;;;5060303;28;20281;-58
2021/03/23 06:43:58;;;;;;;15.38;6.60;;;1.40;90.60;;;;;;5049474;28;20040;-58
2021/03/23 06:46:40;;;;;;;14.98;6.07;;;1.40;90.60;;;;;;5069556;28;20507;-58
2021/03/23 06:49:07;;;;;;;19.00;7.13;;;1.50;90.20;;;;;;5064728;28;20434;-57
2021/03/23 06:51:35;;;;;;;16.58;6.95;;;1.60;90.50;;;;;;5049910;28;20048;-59
2021/03/23 06:54:19;;;;;;;22.73;7.97;;;1.80;90.70;;;;;;5068659;28;20044;-58
2021/03/23 06:56:46;;;;;;;21.15;8.45;;;1.90;90.20;;;;;;5037629;28;20045;-58
2021/03/23 06:59:15;;;;;;;20.75;7.47;;;2.10;90.20;;;;;;5050696;28;20048;-57
2021/03/23 07:01:43;;;;;;;22.33;8.20;;;2.10;89.50;;;;;;5063338;28;20047;-58
2021/03/23 07:04:27;;;;;;;21.50;7.70;;;2.20;89.30;;;;;;5060676;28;20511;-57
2021/03/23 07:07:03;;;;;;;;;;;2.40;87.50;;;;;;5061319;28;20047;-61
2021/03/23 07:09:31;;;;;;;25.63;8.23;;;2.50;86.40;;;;;;5062725;28;19928;-57
2021/03/23 07:12:03;;;;;;;24.77;9.32;;;2.50;85.00;;;;;;5067276;28;20051;-59
2021/03/23 07:14:43;;;;;;;49.67;20.63;;;2.60;85.10;;;;;;5036391;28;20048;-59
2021/03/23 07:17:09;;;;;;;22.75;9.00;;;2.70;84.80;;;;;;5071777;28;20052;-59
2021/03/23 07:19:53;;;;;;;26.27;9.23;;;2.80;84.20;;;;;;5035627;28;20053;-57
2021/03/23 07:22:19;;;;;;;;;;;2.90;84.10;;;;;;5032107;28;20437;-58
2021/03/23 07:24:55;;;;;;;17.83;7.45;;;3.00;83.30;;;;;;5057570;28;20318;-58
2021/03/23 07:27:25;;;;;;;19.50;7.15;;;3.00;82.90;;;;;;5055925;28;20396;-60
2021/03/23 07:30:26;;;;;;;19.17;7.80;;;3.00;84.00;;;;;;5046121;28;20053;-59
2021/03/23 07:32:57;;;;;;;18.77;8.13;;;3.10;83.40;;;;;;5045372;28;20044;-60
2021/03/23 07:35:33;;;;;;;20.42;7.88;;;3.30;82.70;;;;;;5062921;28;20036;-58
2021/03/23 07:38:27;;;;;;;19.50;7.82;;;3.40;82.40;;;;;;5056605;28;20075;-58
2021/03/23 07:40:57;;;;;;;19.55;7.82;;;3.50;82.60;;;;;;5049496;28;20037;-58
2021/03/23 07:43:57;;;;;;;32.88;8.65;;;3.60;81.50;;;;;;5067107;28;20111;-58
2021/03/23 07:46:31;;;;;;;21.70;9.25;;;3.70;79.70;;;;;;5060223;28;20060;-58
2021/03/23 07:49:30;;;;;;;27.35;9.65;;;3.90;78.80;;;;;;5050421;28;20045;-58
2021/03/23 07:52:21;;;;;;;16.48;7.15;;;4.00;79.70;;;;;;5024655;28;20052;-58
2021/03/23 07:54:50;;;;;;;16.08;7.70;;;4.00;76.40;;;;;;5068609;28;20051;-59
2021/03/23 07:57:25;;;;;;;23.23;8.02;;;4.10;76.70;;;;;;5055026;28;20416;-58
2021/03/23 08:00:29;;;;;;;19.85;8.35;;;4.20;76.40;;;;;;5067589;28;20368;-58
2021/03/23 08:03:20;;;;;;;21.13;9.00;;;4.30;75.60;;;;;;5063815;28;21157;-58
2021/03/23 08:06:09;;;;;;;25.60;10.07;;;4.40;76.00;;;;;;5032395;28;20446;-58
2021/03/23 08:08:47;;;;;;;29.33;12.35;;;4.60;74.90;;;;;;5047235;28;20033;-59
2021/03/23 08:11:13;;;;;;;27.58;12.95;;;4.80;73.60;;;;;;5047090;28;20476;-60
2021/03/23 08:14:00;;;;;;;22.40;10.15;;;5.00;72.00;;;;;;5051552;28;20410;-59
2021/03/23 08:16:41;;;;;;;19.52;9.02;;;5.00;71.90;;;;;;5049669;28;20061;-58
2021/03/23 08:19:35;;;;;;;20.13;7.20;;;5.20;69.80;;;;;;5041766;28;20041;-58
2021/03/23 08:22:34;;;;;;;22.42;8.48;;;5.40;67.70;;;;;;5066510;28;20427;-59
2021/03/23 08:25:29;;;;;;;16.88;7.30;;;5.50;67.50;;;;;;5064018;28;20106;-60
2021/03/23 08:28:17;;;;;;;17.58;7.60;;;5.70;67.00;;;;;;5069046;28;20052;-59
2021/03/23 08:31:04;;;;;;;17.35;6.78;;;5.90;67.40;;;;;;5064317;28;20547;-60
2021/03/23 08:33:31;;;;;;;11.82;4.97;;;6.20;67.20;;;;;;5061761;28;20034;-59
2021/03/23 08:36:14;;;;;;;13.25;4.78;;;6.40;65.90;;;;;;5051230;28;20044;-59
2021/03/23 08:38:56;;;;;;;14.65;5.22;;;6.50;64.10;;;;;;5046581;28;20495;-59
2021/03/23 08:41:37;;;;;;;11.15;4.53;;;6.80;64.30;;;;;;5061815;28;20059;-59
2021/03/23 08:44:06;;;;;;;10.27;4.80;;;7.00;63.40;;;;;;5070007;28;20048;-56
2021/03/23 08:46:36;;;;;;;7.20;3.33;;;7.20;63.10;;;;;;5057348;28;20056;-57
2021/03/23 08:49:15;;;;;;;10.50;3.92;;;7.50;61.70;;;;;;5062478;28;20052;-56
2021/03/23 08:51:48;;;;;;;9.60;3.25;;;7.80;58.80;;;;;;5054394;28;20546;-58
2021/03/23 08:54:45;;;;;;;7.00;3.03;;;7.90;57.50;;;;;;5070957;28;20043;-57
2021/03/23 08:57:12;;;;;;;7.72;3.25;;;8.20;55.80;;;;;;5056436;28;20043;-57
2021/03/23 08:59:39;;;;;;;7.93;3.42;;;8.30;55.10;;;;;;5041852;28;20049;-57
2021/03/23 09:02:09;;;;;;;6.07;2.42;;;8.40;56.80;;;;;;5069811;28;20032;-59
2021/03/23 09:04:41;;;;;;;7.40;3.00;;;8.50;54.20;;;;;;5053581;28;20064;-57
2021/03/23 09:07:07;;;;;;;10.05;3.47;;;8.60;53.50;;;;;;5058276;28;20528;-58
2021/03/23 09:09:38;;;;;;;6.60;2.80;;;8.70;53.30;;;;;;5073441;28;20400;-56
2021/03/23 09:12:37;;;;;;;5.13;2.63;;;8.80;53.40;;;;;;5072138;28;20105;-61
2021/03/23 09:15:10;;;;;;;7.35;2.90;;;8.70;53.60;;;;;;5055148;28;20567;-59
2021/03/23 09:18:07;;;;;;;5.82;2.10;;;8.80;53.90;;;;;;5073295;28;20037;-60
2021/03/23 09:20:36;;;;;;;6.05;2.38;;;8.80;53.90;;;;;;5053270;28;20055;-61
2021/03/23 09:23:15;;;;;;;9.02;3.45;;;9.10;53.90;;;;;;5053075;28;20040;-57
2021/03/23 09:25:51;;;;;;;7.20;3.30;;;9.10;53.30;;;;;;5066450;28;20040;-59
2021/03/23 09:28:30;;;;;;;7.75;2.92;;;9.20;53.30;;;;;;5065235;28;20098;-57
2021/03/23 09:30:58;;;;;;;11.05;3.92;;;9.30;53.60;;;;;;5070758;28;20048;-58
2021/03/23 09:33:24;;;;;;;9.07;3.08;;;9.30;52.70;;;;;;5051551;28;20133;-58
2021/03/23 09:36:12;;;;;;;6.93;3.15;;;9.50;53.90;;;;;;5060372;28;20043;-57
2021/03/23 09:38:43;;;;;;;14.38;3.38;;;9.40;52.60;;;;;;5066247;28;20044;-58
2021/03/23 09:41:22;;;;;;;8.82;3.75;;;9.50;53.50;;;;;;5066298;28;20036;-59
2021/03/23 09:44:01;;;;;;;9.13;3.55;;;9.70;52.50;;;;;;5065845;28;20048;-60
2021/03/23 09:46:37;;;;;;;8.32;2.58;;;9.60;52.50;;;;;;5065485;28;20048;-59
2021/03/23 09:49:26;;;;;;;7.22;2.83;;;9.80;52.40;;;;;;5043137;28;20084;-58
2021/03/23 09:52:01;;;;;;;4.18;2.17;;;9.80;51.20;;;;;;5067353;28;20048;-58
2021/03/23 09:54:33;;;;;;;6.22;1.88;;;9.60;50.90;;;;;;5066654;28;20045;-59
2021/03/23 09:57:03;;;;;;;4.55;1.52;;;9.80;51.50;;;;;;5065292;28;20040;-57
2021/03/23 09:59:53;;;;;;;3.58;1.23;;;9.90;49.90;;;;;;5052187;28;20076;-58
2021/03/23 10:02:32;;;;;;;4.07;1.60;;;10.10;49.90;;;;;;5067095;28;20044;-58
2021/03/23 10:05:26;;;;;;;5.47;1.60;;;10.30;50.70;;;;;;5065778;28;20048;-57
2021/03/23 10:08:09;;;;;;;7.70;2.10;;;10.50;50.10;;;;;;5059433;28;20641;-59
2021/03/23 10:10:36;;;;;;;;;;;10.60;48.70;;;;;;5065859;28;20048;-58
2021/03/23 10:13:27;;;;;;;7.53;2.20;;;10.50;48.20;;;;;;5064877;28;19930;-58
2021/03/23 10:15:55;;;;;;;4.80;1.55;;;10.50;48.10;;;;;;5065908;28;20047;-59
2021/03/23 10:18:25;;;;;;;6.95;3.30;;;10.40;48.90;;;;;;5047711;28;20037;-58
2021/03/23 10:21:25;;;;;;;5.18;1.90;;;10.40;49.20;;;;;;5065550;28;20055;-62
2021/03/23 10:23:58;;;;;;;4.95;1.52;;;10.50;47.90;;;;;;5063805;28;20051;-61
2021/03/23 10:26:38;;;;;;;3.80;1.52;;;10.70;48.20;;;;;;5062908;28;20496;-60
2021/03/23 10:29:16;;;;;;;4.25;1.30;;;10.70;47.40;;;;;;5062883;28;20040;-59
2021/03/23 10:31:51;;;;;;;4.38;1.23;;;10.40;47.90;;;;;;5044109;28;20044;-59
2021/03/23 10:34:23;;;;;;;4.13;1.40;;;10.40;47.30;;;;;;5061007;28;20040;-59
2021/03/23 10:37:02;;;;;;;7.22;1.75;;;10.30;48.10;;;;;;5030275;28;20040;-62
2021/03/23 10:39:33;;;;;;;7.15;1.80;;;10.30;48.70;;;;;;5065878;28;20036;-59
2021/03/23 10:42:12;;;;;;;2.35;0.77;;;10.60;49.50;;;;;;5045917;28;20492;-58
2021/03/23 10:44:39;;;;;;;2.70;1.02;;;10.90;48.00;;;;;;5064826;28;20447;-64
2021/03/23 10:47:06;;;;;;;4.20;0.75;;;11.00;46.90;;;;;;5059120;28;20052;-61
2021/03/23 10:49:37;;;;;;;2.63;0.80;;;11.10;46.90;;;;;;5068131;28;20131;-60
2021/03/23 10:52:26;;;;;;;3.00;0.98;;;11.30;46.80;;;;;;5046613;28;20044;-62
2021/03/23 10:55:18;;;;;;;5.25;1.40;;;11.00;46.30;;;;;;5064028;28;20041;-60
2021/03/23 10:57:45;;;;;;;4.35;0.80;;;10.80;47.60;;;;;;5067627;28;20040;-60
2021/03/23 11:00:23;;;;;;;5.38;1.38;;;10.80;46.60;;;;;;5040458;28;20076;-61
2021/03/23 11:02:50;;;;;;;3.63;1.00;;;10.80;47.40;;;;;;5039338;28;20056;-61
2021/03/23 11:05:23;;;;;;;3.17;0.60;;;10.90;47.10;;;;;;5059027;28;20045;-59
2021/03/23 11:07:56;;;;;;;2.42;0.70;;;11.00;46.00;;;;;;5057766;28;20411;-59
2021/03/23 11:10:26;;;;;;;4.15;0.98;;;11.00;46.20;;;;;;5063450;28;20407;-60
2021/03/23 11:12:53;;;;;;;2.75;0.90;;;10.80;46.60;;;;;;5063236;28;20395;-62
2021/03/23 11:15:20;;;;;;;2.53;0.85;;;11.00;47.70;;;;;;5066481;28;20044;-61
2021/03/23 11:17:51;;;;;;;7.40;1.17;;;11.20;47.30;;;;;;5064850;28;20527;-60
2021/03/23 11:20:37;;;;;;;2.47;0.85;;;11.30;46.60;;;;;;5062676;28;20059;-61
2021/03/23 11:23:36;;;;;;;2.63;0.90;;;11.20;45.90;;;;;;5066309;28;20033;-60
2021/03/23 11:26:08;;;;;;;5.55;1.20;;;11.00;46.40;;;;;;5064345;28;20044;-63
2021/03/23 11:28:41;;;;;;;4.03;1.38;;;10.90;47.00;;;;;;5046783;28;20043;-61
2021/03/23 11:31:11;;;;;;;4.63;1.15;;;10.70;47.10;;;;;;5056321;28;20044;-60
2021/03/23 11:33:38;;;;;;;3.08;0.90;;;10.80;47.20;;;;;;5061263;28;20036;-61
2021/03/23 11:36:06;;;;;;;4.93;0.93;;;10.80;46.90;;;;;;5045736;28;20049;-61
2021/03/23 11:38:34;;;;;;;5.13;1.38;;;10.80;47.40;;;;;;5064194;28;20032;-62
2021/03/23 11:41:03;;;;;;;4.55;1.67;;;10.90;47.70;;;;;;5066674;28;20047;-61
2021/03/23 11:43:32;;;;;;;2.60;0.82;;;11.00;46.20;;;;;;5060486;28;20037;-60
2021/03/23 11:46:06;;;;;;;4.45;1.05;;;10.90;47.20;;;;;;5058531;28;20151;-61
2021/03/23 11:48:36;;;;;;;2.53;0.88;;;11.00;48.20;;;;;;5064738;28;20063;-59
2021/03/23 11:51:05;;;;;;;8.57;1.25;;;11.00;47.40;;;;;;5064460;28;20036;-61
2021/03/23 11:53:32;;;;;;;10.52;1.73;;;11.10;47.10;;;;;;5048874;28;20376;-60
2021/03/23 11:55:58;;;;;;;4.97;1.52;;;11.20;47.30;;;;;;5046917;28;20567;-60
2021/03/23 11:58:26;;;;;;;6.43;1.67;;;11.30;47.10;;;;;;5045718;28;20049;-59
2021/03/23 12:00:55;;;;;;;9.63;1.77;;;11.40;46.90;;;;;;5046841;28;20118;-58
2021/03/23 12:03:24;;;;;;;5.77;2.03;;;11.40;47.30;;;;;;5073017;28;20044;-59
2021/03/23 12:05:54;;;;;;;6.63;1.02;;;11.40;46.70;;;;;;5067193;28;20076;-58
2021/03/23 12:08:36;;;;;;;5.25;1.42;;;11.50;46.10;;;;;;5066890;28;20033;-59
2021/03/23 12:11:12;;;;;;;3.35;1.25;;;11.50;46.10;;;;;;5029788;28;20567;-58
2021/03/23 12:14:13;;;;;;;3.92;0.93;;;11.60;46.60;;;;;;5045272;28;20432;-61
2021/03/23 12:17:12;;;;;;;4.45;1.17;;;11.60;47.00;;;;;;5071619;28;20051;-58
2021/03/23 12:20:05;;;;;;;6.00;1.42;;;11.80;47.80;;;;;;5068983;28;20072;-58
2021/03/23 12:22:34;;;;;;;4.32;1.60;;;12.30;46.80;;;;;;5069918;28;20514;-57
2021/03/23 12:25:02;;;;;;;2.63;1.05;;;12.50;45.00;;;;;;5052627;28;20048;-60
2021/03/23 12:27:29;;;;;;;3.85;1.60;;;13.00;45.70;;;;;;5055082;28;20043;-58
2021/03/23 12:29:56;;;;;;;6.22;1.60;;;13.20;43.80;;;;;;5043997;28;20049;-58
2021/03/23 12:32:22;;;;;;;4.72;1.75;;;13.30;43.70;;;;;;5055091;28;20550;-58
2021/03/23 12:34:49;;;;;;;2.85;1.23;;;12.50;43.70;;;;;;5067143;28;20523;-60
2021/03/23 12:37:17;;;;;;;4.38;1.55;;;12.10;45.30;;;;;;5070613;28;20036;-58
2021/03/23 12:39:44;;;;;;;4.57;1.33;;;11.90;46.20;;;;;;5073571;28;20040;-58
2021/03/23 12:42:15;;;;;;;6.60;1.70;;;12.10;46.40;;;;;;5073092;28;20040;-58
2021/03/23 12:44:42;;;;;;;8.65;1.92;;;12.00;46.10;;;;;;5053649;28;20060;-58
2021/03/23 12:47:12;;;;;;;3.90;1.30;;;12.10;45.70;;;;;;5072884;28;20048;-59
2021/03/23 12:49:40;;;;;;;6.00;1.90;;;12.10;45.70;;;;;;5073559;28;20345;-58
2021/03/23 12:52:15;;;;;;;5.32;1.73;;;11.90;46.10;;;;;;5072309;28;20048;-58
2021/03/23 12:54:45;;;;;;;7.70;1.58;;;11.70;46.10;;;;;;5079777;28;20369;-60
2021/03/23 12:57:28;;;;;;;2.42;0.90;;;11.60;46.10;;;;;;5073388;28;20059;-59
2021/03/23 12:59:58;;;;;;;7.78;1.95;;;11.70;47.30;;;;;;5043515;28;20094;-58
2021/03/23 13:02:28;;;;;;;6.43;1.50;;;12.00;47.30;;;;;;5068229;28;20032;-58
2021/03/23 13:04:57;;;;;;;3.08;1.52;;;12.20;45.40;;;;;;5070325;28;20067;-58
2021/03/23 13:07:30;;;;;;;4.18;1.40;;;12.50;46.20;;;;;;5054869;28;20051;-59
2021/03/23 13:09:57;;;;;;;;;;;12.50;45.10;;;;;;5073592;28;20037;-59
2021/03/23 13:12:26;;;;;;;6.43;1.60;;;12.70;44.50;;;;;;5043634;28;19975;-61
2021/03/23 13:14:54;;;;;;;4.40;1.80;;;12.20;44.50;;;;;;5049238;28;20599;-60